Лозоватка

Карта отелей и гостиниц, располагающихся рядом с аэропортом Лозоватка :

Лозоватка
Кривой Рог
Днепропетровская область 48° 2' 38.6988" N, 33° 12' 29.5812" E
Код аэродрома ИКАО
UKDR
Код аэродрома RU
УКДР
Координаты
N48.04408° E033.20822°
Превышение над уровнем моря
120
Основная полоса
18/36
Курс магнитный
178,4/358,4
Длина основной ВПП
2500
Ширина основной ВПП
45
Покрытие основной ВПП
Твёрдое
Освещение ВПП
Постоянное
Тип: 
Аэродром
Класс аэродрома: 
Международный
Принадлежность: 
ГА
Статус: 
Действующий
Страна: 
Украина
Регион: 
Днепропетровская область
Город: 
Кривой Рог
Дополнительная информация: 
Оператор: КП "Международный аэропорт Кривой Рог".
Погода: 

Авиационная погода в Кривом Роге

Регион: 
Погода METAR: 
UKDR 141000Z 26009MPS 9999 -RA OVC008 02/01 Q1004
Время наблюдения
2022-01-14T10:00:00Z
Температура C
2.0
Точка росы
1.0
Направление ветра
260
Скорость ветра (узлы)
17
Метео видимость
6.21
Облачность
OVC
Нижняя граница облачности (футы)
800
Явления погоды
-RA
Условия полета
IFR
Аэропорт подробнее: 
OVC – сплошная облачность;
-RA - слабый дождь;

Найти трансфер

С помощью этой формы Вы можете найти трансфер из аэропорта Лозоватка в город, аэропорт или вокзал:

Погода в аэропортах:

Авиационная погода в Самсуне

Регион: 
Погода METAR: 
LTFH 221750Z 29012KT 3200 -RASN SCT005 BKN026 OVC080 02/01 Q1010 NOSIG
Время наблюдения
2022-01-22T17:50:00Z
Температура C
2.0
Точка росы
1.0
Направление ветра
290
Скорость ветра (узлы)
12
Метео видимость
1.99
Облачность
SCT
BKN
OVC
Нижняя граница облачности (футы)
500
2600
8000
Явления погоды
-RA -SN
Условия полета
IFR
SCT – разбросанная отдельная облачность; BKN – значительная (рассеянная, разорванная) облачность; OVC – сплошная облачность;
-RA - слабый дождь; -SN – слабый снег;

Авиационная погода в Зонгулдаке

Регион: 
Погода METAR: 
LTAS 221150Z 11001KT 2200 -SHRASN BR SCT003 BKN025 BKN080 02/01 Q1014
Время наблюдения
2022-01-22T11:50:00Z
Температура C
2.0
Точка росы
1.0
Направление ветра
110
Скорость ветра (узлы)
1
Метео видимость
1.37
Облачность
SCT
BKN
BKN
Нижняя граница облачности (футы)
300
2500
8000
Явления погоды
-SHRA -SHSN BR
Условия полета
IFR
SCT – разбросанная отдельная облачность; BKN – значительная (рассеянная, разорванная) облачность;
-SHRA - слабый ливневой дождь; -SHSN - слабый ливневой снег; BR – дымка (видимость от 1 до 9 км);

Авиационная погода в Пскове

Регион: 
Погода METAR: 
ULOO 221800Z 07003MPS 010V110 9000 -SN OVC014 M04/M06 Q1018 R01/490333 NOSIG RMK QFE759
Время наблюдения
2022-01-22T18:00:00Z
Температура C
-4.0
Точка росы
-6.0
Направление ветра
70
Скорость ветра (узлы)
6
Метео видимость
5.59
Облачность
OVC
Нижняя граница облачности (футы)
1400
Явления погоды
-SN
Условия полета
MVFR
OVC – сплошная облачность;
-SN – слабый снег;

Авиационная погода в Кокшетау

Регион: 
Погода METAR: 
UACK 221200Z 03001MPS 6000 -SG BKN002 M16/M18 Q1028 TEMPO BKN003 RMK QBB070 QFE747/0997
Время наблюдения
2022-01-22T12:00:00Z
Температура C
-16.0
Точка росы
-18.0
Направление ветра
30
Скорость ветра (узлы)
2
Метео видимость
3.73
Облачность
BKN
Нижняя граница облачности (футы)
200
Явления погоды
-SG
Условия полета
LIFR
Аэропорт подробнее: 
BKN – значительная (рассеянная, разорванная) облачность;
SG - снежные зёрна;